Time;durP1;ratioP1;P1;durP2;ratioP2;P2;SDS_P1;SDS_P2;PMS_P1;PMS_P2;Temp;Humidity;BMP_temperature;BMP_pressure;BME280_temperature;BME280_humidity;BME280_pressure;Samples;Min_cycle;Max_cycle;Signal;HPM_P1;HPM_P2
2022/08/09 00:00:04;;;;;;;31.33;29.73;;;19.30;60.40;;;;;;5055053;28;20920;-68
2022/08/09 00:02:33;;;;;;;30.60;29.03;;;19.40;60.40;;;;;;5070156;28;20484;-68
2022/08/09 00:05:00;;;;;;;31.23;29.63;;;19.30;60.60;;;;;;5065306;28;20545;-71
2022/08/09 00:07:27;;;;;;;30.80;29.30;;;19.30;60.80;;;;;;5069932;28;20464;-68
2022/08/09 00:09:54;;;;;;;30.10;28.50;;;19.20;61.00;;;;;;5052703;28;20510;-72
2022/08/09 00:12:21;;;;;;;29.27;27.77;;;19.20;61.00;;;;;;5070065;28;20511;-69
2022/08/09 00:14:48;;;;;;;29.80;28.40;;;19.20;61.10;;;;;;5068006;28;20866;-70
2022/08/09 00:17:15;;;;;;;30.10;28.20;;;19.20;61.20;;;;;;5057625;28;20539;-68
2022/08/09 00:19:43;;;;;;;30.10;28.70;;;19.10;61.40;;;;;;5061099;28;20559;-69
2022/08/09 00:22:10;;;;;;;29.10;27.70;;;19.10;61.40;;;;;;5066350;28;21060;-69
2022/08/09 00:24:37;;;;;;;30.33;28.93;;;19.00;61.50;;;;;;5063327;28;20488;-69
2022/08/09 00:27:04;;;;;;;30.43;29.03;;;19.00;61.60;;;;;;5067780;28;20621;-70
2022/08/09 00:29:31;;;;;;;31.10;29.70;;;19.00;61.70;;;;;;5055711;28;20480;-68
2022/08/09 00:31:58;;;;;;;31.17;29.47;;;19.00;61.70;;;;;;5065889;28;20561;-68
2022/08/09 00:34:25;;;;;;;32.70;31.10;;;19.00;61.70;;;;;;5058792;28;20998;-69
2022/08/09 00:36:54;;;;;;;31.30;29.80;;;19.00;61.80;;;;;;5064769;28;21021;-66
2022/08/09 00:39:21;;;;;;;31.30;29.70;;;18.90;62.20;;;;;;5057664;28;20618;-66
2022/08/09 00:41:49;;;;;;;31.03;29.63;;;18.90;62.30;;;;;;5065680;28;20826;-66
2022/08/09 00:44:16;;;;;;;32.30;30.67;;;18.90;62.50;;;;;;5062581;28;20463;-66
2022/08/09 00:46:43;;;;;;;33.10;31.60;;;18.90;62.50;;;;;;5068115;28;20465;-66
2022/08/09 00:49:10;;;;;;;32.00;30.60;;;18.80;62.80;;;;;;5065411;28;20567;-66
2022/08/09 00:51:38;;;;;;;32.00;30.40;;;18.80;62.70;;;;;;5069027;28;20480;-66
2022/08/09 00:54:06;;;;;;;32.60;31.00;;;18.90;62.70;;;;;;5059920;28;20548;-66
2022/08/09 00:56:33;;;;;;;32.20;30.80;;;18.80;63.10;;;;;;5070006;28;20568;-66
2022/08/09 00:59:00;;;;;;;31.63;30.23;;;18.70;63.20;;;;;;5065148;28;20531;-66
2022/08/09 01:01:34;;;;;;;31.73;30.13;;;18.80;63.00;;;;;;5071517;28;20547;-66
2022/08/09 01:04:08;;;;;;;32.50;31.10;;;18.60;63.60;;;;;;5063095;28;20566;-66
2022/08/09 01:06:39;;;;;;;31.60;30.20;;;18.60;63.50;;;;;;5066311;28;20543;-66
2022/08/09 01:09:26;;;;;;;31.43;29.90;;;18.60;63.60;;;;;;5059201;28;20486;-66
2022/08/09 01:12:00;;;;;;;30.93;29.63;;;18.60;63.60;;;;;;5069082;28;20551;-66
2022/08/09 01:14:32;;;;;;;31.97;30.67;;;18.50;63.60;;;;;;5064840;28;20539;-66
2022/08/09 01:17:07;;;;;;;30.07;28.77;;;18.40;63.70;;;;;;5072137;28;20465;-66
2022/08/09 01:19:43;;;;;;;32.70;31.20;;;18.50;63.80;;;;;;5065501;28;20462;-66
2022/08/09 01:22:36;;;;;;;33.30;31.80;;;18.50;63.80;;;;;;5058076;28;20466;-68
2022/08/09 01:25:18;;;;;;;33.40;31.90;;;18.50;63.90;;;;;;5067658;28;20468;-69
2022/08/09 01:27:51;;;;;;;32.60;31.20;;;18.30;64.20;;;;;;5064317;28;20543;-68
2022/08/09 01:30:19;;;;;;;32.90;31.30;;;18.30;64.40;;;;;;5057011;28;20567;-68
2022/08/09 01:32:48;;;;;;;32.17;30.73;;;18.30;64.50;;;;;;5072734;28;20550;-69
2022/08/09 01:35:20;;;;;;;33.47;31.57;;;18.30;64.60;;;;;;5063085;28;20549;-68
2022/08/09 01:37:50;;;;;;;32.00;30.60;;;18.20;64.80;;;;;;5071982;28;20541;-68
2022/08/09 01:40:19;;;;;;;31.63;30.23;;;18.20;64.80;;;;;;5060878;28;20509;-68
2022/08/09 01:42:49;;;;;;;30.53;29.20;;;18.10;64.90;;;;;;5071457;28;20880;-68
2022/08/09 01:45:16;;;;;;;33.33;31.67;;;18.10;65.20;;;;;;5075246;28;20547;-68
2022/08/09 01:47:45;;;;;;;32.30;30.87;;;18.10;65.20;;;;;;5070414;28;20459;-66
2022/08/09 01:50:13;;;;;;;32.30;30.90;;;18.10;65.30;;;;;;5068269;28;20484;-66
2022/08/09 01:52:43;;;;;;;32.60;31.10;;;18.00;65.40;;;;;;5072551;28;20485;-66
2022/08/09 01:55:11;;;;;;;31.87;30.43;;;17.90;65.70;;;;;;5070896;28;21000;-66
2022/08/09 01:57:42;;;;;;;31.50;30.00;;;17.90;65.90;;;;;;5069573;28;20579;-66
2022/08/09 02:00:13;;;;;;;31.00;29.50;;;17.90;66.00;;;;;;5056696;28;20479;-65
2022/08/09 02:02:44;;;;;;;32.10;30.70;;;17.90;66.00;;;;;;5072353;28;20537;-66
2022/08/09 02:05:14;;;;;;;31.63;30.23;;;17.80;66.20;;;;;;5065489;28;20545;-66
2022/08/09 02:07:44;;;;;;;32.33;31.03;;;17.80;66.00;;;;;;5069446;28;21039;-66
2022/08/09 02:10:15;;;;;;;32.73;31.33;;;17.80;66.30;;;;;;5056318;28;20582;-66
2022/08/09 02:12:43;;;;;;;36.30;34.70;;;17.80;66.50;;;;;;5071098;28;20468;-66
2022/08/09 02:15:13;;;;;;;32.77;31.37;;;17.70;66.70;;;;;;5065556;28;20463;-68
2022/08/09 02:17:42;;;;;;;31.93;30.43;;;17.70;66.50;;;;;;5068168;28;20565;-69
2022/08/09 02:20:11;;;;;;;31.90;30.50;;;17.70;66.70;;;;;;5064421;28;20598;-66
2022/08/09 02:22:42;;;;;;;39.10;37.27;;;17.70;66.70;;;;;;5072043;28;20964;-68
2022/08/09 02:25:12;;;;;;;34.23;32.77;;;17.60;67.00;;;;;;5069713;28;20566;-68
2022/08/09 02:27:42;;;;;;;34.87;33.00;;;17.60;67.10;;;;;;5068382;28;20549;-66
2022/08/09 02:30:12;;;;;;;58.47;55.67;;;17.50;67.40;;;;;;5069267;28;20577;-66
2022/08/09 02:32:44;;;;;;;34.20;32.50;;;17.50;67.40;;;;;;5069634;28;20573;-68
2022/08/09 02:35:17;;;;;;;31.77;30.27;;;17.50;67.60;;;;;;5071261;28;20533;-68
2022/08/09 02:37:45;;;;;;;33.07;31.63;;;17.50;67.70;;;;;;5067306;28;20550;-69
2022/08/09 02:40:16;;;;;;;30.23;28.80;;;17.40;67.80;;;;;;5069656;28;20573;-69
2022/08/09 02:42:47;;;;;;;31.70;30.30;;;17.20;68.20;;;;;;5071369;28;20479;-70
2022/08/09 02:45:21;;;;;;;32.70;31.10;;;17.30;68.30;;;;;;5065183;28;20462;-68
2022/08/09 02:47:49;;;;;;;32.50;31.20;;;17.20;68.40;;;;;;5069182;28;21096;-68
2022/08/09 02:50:21;;;;;;;31.97;30.47;;;17.30;68.40;;;;;;5068606;28;20594;-68
2022/08/09 02:52:56;;;;;;;30.13;28.83;;;17.30;68.40;;;;;;5071150;28;20569;-68
2022/08/09 02:55:24;;;;;;;33.97;32.40;;;17.30;68.30;;;;;;5070166;28;20876;-72
2022/08/09 02:57:53;;;;;;;34.17;32.50;;;17.30;68.10;;;;;;5068244;28;20567;-68
2022/08/09 03:00:24;;;;;;;42.57;40.30;;;17.20;68.30;;;;;;5056385;28;20496;-70
2022/08/09 03:02:53;;;;;;;30.90;29.50;;;17.20;68.60;;;;;;5069073;28;20867;-69
2022/08/09 03:05:22;;;;;;;31.60;30.07;;;17.20;68.60;;;;;;5058635;28;20494;-68
2022/08/09 03:07:51;;;;;;;31.57;30.07;;;17.20;68.60;;;;;;5067922;28;20984;-66
2022/08/09 03:10:20;;;;;;;33.87;32.00;;;17.10;69.00;;;;;;5057003;28;20545;-66
2022/08/09 03:12:49;;;;;;;36.17;34.47;;;17.10;68.80;;;;;;5070000;28;20467;-66
2022/08/09 03:15:17;;;;;;;30.00;28.70;;;17.10;69.10;;;;;;5058465;28;20546;-66
2022/08/09 03:17:45;;;;;;;32.57;31.10;;;16.90;69.50;;;;;;5068017;28;20461;-66
2022/08/09 03:20:14;;;;;;;34.33;32.73;;;16.90;69.90;;;;;;5066590;28;20478;-66
2022/08/09 03:22:45;;;;;;;58.57;55.87;;;16.80;70.20;;;;;;5066193;28;20512;-66
2022/08/09 03:25:13;;;;;;;34.87;33.27;;;16.80;70.20;;;;;;5057017;28;20458;-66
2022/08/09 03:27:41;;;;;;;34.60;32.80;;;16.80;70.10;;;;;;5068000;28;20504;-66
2022/08/09 03:30:10;;;;;;;54.70;52.23;;;16.90;70.00;;;;;;5067553;28;20478;-66
2022/08/09 03:32:38;;;;;;;46.03;43.93;;;16.80;70.10;;;;;;5065958;28;20573;-66
2022/08/09 03:35:10;;;;;;;41.20;39.43;;;16.80;70.20;;;;;;5056297;28;20495;-66
2022/08/09 03:37:37;;;;;;;47.97;45.60;;;16.80;70.30;;;;;;5068443;28;20450;-66
2022/08/09 03:40:05;;;;;;;61.20;58.43;;;16.70;70.40;;;;;;5066098;28;20513;-66
2022/08/09 03:42:32;;;;;;;33.00;31.40;;;16.70;70.50;;;;;;5068473;28;20545;-66
2022/08/09 03:44:59;;;;;;;32.27;30.77;;;16.70;70.80;;;;;;5055892;28;20463;-66
2022/08/09 03:47:26;;;;;;;40.70;38.67;;;16.70;70.90;;;;;;5068024;28;20534;-66
2022/08/09 03:49:54;;;;;;;45.20;43.10;;;16.70;71.00;;;;;;5067843;28;20839;-66
2022/08/09 03:52:23;;;;;;;31.20;29.70;;;16.70;70.90;;;;;;5065744;28;21027;-66
2022/08/09 03:54:52;;;;;;;33.03;31.63;;;16.80;70.80;;;;;;5072081;28;20465;-66
2022/08/09 03:57:21;;;;;;;53.07;50.43;;;16.70;70.90;;;;;;5068345;28;20916;-66
2022/08/09 03:59:49;;;;;;;39.27;37.47;;;16.60;71.20;;;;;;5067295;28;20506;-66
2022/08/09 04:02:18;;;;;;;40.07;38.20;;;16.50;71.50;;;;;;5061801;28;20465;-68
2022/08/09 04:04:45;;;;;;;50.77;48.43;;;16.50;71.50;;;;;;5068145;28;20916;-68
2022/08/09 04:07:12;;;;;;;45.80;43.50;;;16.50;71.60;;;;;;5067103;28;20848;-69
2022/08/09 04:09:41;;;;;;;45.43;43.37;;;16.50;71.70;;;;;;5068996;28;20854;-68
2022/08/09 04:12:38;;;;;;;52.37;50.07;;;16.60;71.60;;;;;;5065495;28;21410;-69
2022/08/09 04:15:06;;;;;;;38.00;35.90;;;16.60;71.40;;;;;;5063200;28;20550;-68
2022/08/09 04:17:33;;;;;;;38.53;36.47;;;16.60;71.50;;;;;;5068183;28;20466;-68
2022/08/09 04:19:59;;;;;;;49.07;46.83;;;16.60;71.50;;;;;;5066714;28;21142;-67
2022/08/09 04:22:26;;;;;;;34.87;33.37;;;16.60;71.50;;;;;;5067250;28;20918;-69
2022/08/09 04:24:55;;;;;;;35.30;33.70;;;16.60;71.40;;;;;;5062823;28;20468;-68
2022/08/09 04:27:22;;;;;;;38.33;36.43;;;16.60;71.50;;;;;;5068548;28;20490;-68
2022/08/09 04:29:49;;;;;;;33.17;31.77;;;16.60;71.60;;;;;;5056950;28;20558;-68
2022/08/09 04:32:16;;;;;;;38.90;37.10;;;16.60;71.60;;;;;;5054890;28;20565;-69
2022/08/09 04:34:43;;;;;;;56.93;54.33;;;16.70;71.40;;;;;;5065226;28;20466;-67
2022/08/09 04:37:10;;;;;;;33.27;31.73;;;16.80;71.20;;;;;;5067986;28;20569;-69
2022/08/09 04:39:36;;;;;;;60.27;57.33;;;16.90;70.90;;;;;;5064584;28;20552;-73
2022/08/09 04:42:05;;;;;;;30.50;29.10;;;16.90;70.90;;;;;;5067906;28;20494;-69
2022/08/09 04:44:32;;;;;;;37.20;35.50;;;16.90;70.80;;;;;;5058377;28;20899;-68
2022/08/09 04:46:59;;;;;;;37.03;35.30;;;17.00;70.70;;;;;;5066117;28;20463;-68
2022/08/09 04:49:31;;;;;;;52.30;49.80;;;16.90;70.90;;;;;;5052917;28;20544;-68
2022/08/09 04:51:58;;;;;;;33.67;32.17;;;16.80;71.20;;;;;;5064825;28;20482;-68
2022/08/09 04:54:25;;;;;;;31.03;29.70;;;16.80;71.30;;;;;;5059180;28;20542;-70
2022/08/09 04:56:52;;;;;;;35.97;34.37;;;16.80;71.30;;;;;;5064709;28;20512;-69
2022/08/09 04:59:20;;;;;;;41.27;39.27;;;17.00;70.90;;;;;;5068806;28;20454;-73
2022/08/09 05:01:48;;;;;;;29.90;28.50;;;17.00;71.00;;;;;;5062094;28;20454;-67
2022/08/09 05:04:15;;;;;;;40.13;38.00;;;16.90;71.20;;;;;;5060075;28;20475;-70
2022/08/09 05:06:42;;;;;;;36.27;34.57;;;17.00;71.40;;;;;;5063619;28;20497;-68
2022/08/09 05:09:09;;;;;;;57.10;54.60;;;17.10;71.10;;;;;;5060975;28;20460;-68
2022/08/09 05:11:36;;;;;;;42.63;40.23;;;17.20;70.60;;;;;;5064312;28;21069;-69
2022/08/09 05:14:03;;;;;;;34.63;32.93;;;17.30;70.40;;;;;;5064007;28;20553;-69
2022/08/09 05:16:32;;;;;;;39.80;37.80;;;17.30;70.20;;;;;;5067942;28;20524;-70
2022/08/09 05:18:59;;;;;;;37.70;35.93;;;17.40;70.20;;;;;;5064150;28;20499;-71
2022/08/09 05:21:26;;;;;;;35.10;33.47;;;17.50;70.10;;;;;;5067960;28;20497;-67
2022/08/09 05:23:53;;;;;;;40.93;39.03;;;17.50;69.90;;;;;;5063648;28;20486;-68
2022/08/09 05:26:21;;;;;;;36.07;34.37;;;17.70;69.60;;;;;;5063056;28;20807;-68
2022/08/09 05:28:48;;;;;;;33.60;31.90;;;17.70;69.40;;;;;;5055735;28;20495;-68
2022/08/09 05:31:15;;;;;;;48.87;46.47;;;17.80;69.10;;;;;;5064285;28;20566;-71
2022/08/09 05:33:43;;;;;;;31.50;30.10;;;17.90;68.90;;;;;;5062620;28;20515;-69
2022/08/09 05:36:11;;;;;;;38.20;36.40;;;18.00;68.50;;;;;;5061214;28;21085;-68
2022/08/09 05:38:37;;;;;;;44.80;42.80;;;18.10;68.50;;;;;;5061631;28;20490;-69
2022/08/09 05:41:04;;;;;;;48.77;46.57;;;18.20;68.30;;;;;;5067174;28;20474;-68
2022/08/09 05:43:34;;;;;;;47.90;45.53;;;18.30;68.00;;;;;;5067866;28;20463;-71
2022/08/09 05:46:01;;;;;;;35.87;34.27;;;18.50;67.60;;;;;;5066347;28;20454;-74
2022/08/09 05:48:28;;;;;;;44.40;42.40;;;18.70;67.30;;;;;;5060202;28;20574;-71
2022/08/09 05:50:56;;;;;;;34.27;32.67;;;18.90;66.60;;;;;;5063395;28;20489;-71
2022/08/09 05:53:23;;;;;;;49.30;46.93;;;19.00;66.30;;;;;;5067051;28;20458;-70
2022/08/09 05:55:50;;;;;;;33.03;31.57;;;19.10;65.90;;;;;;5067718;28;20456;-70
2022/08/09 05:58:18;;;;;;;37.27;35.40;;;19.20;65.40;;;;;;5070695;28;20459;-71
2022/08/09 06:00:45;;;;;;;38.00;36.20;;;19.40;64.90;;;;;;5064456;28;20479;-73
2022/08/09 06:03:12;;;;;;;47.77;45.43;;;19.40;64.60;;;;;;5070742;28;20477;-71
2022/08/09 06:05:39;;;;;;;40.73;38.73;;;19.50;64.20;;;;;;5068783;28;20508;-71
2022/08/09 06:08:07;;;;;;;42.90;40.73;;;19.60;64.00;;;;;;5069900;28;20575;-72
2022/08/09 06:10:40;;;;;;;41.00;39.20;;;19.80;63.90;;;;;;5063263;28;20569;-76
2022/08/09 06:13:08;;;;;;;51.77;49.27;;;19.90;62.90;;;;;;5064502;28;20473;-72
2022/08/09 06:15:35;;;;;;;41.17;38.87;;;20.00;62.40;;;;;;5071348;28;20455;-72
2022/08/09 06:18:02;;;;;;;47.63;45.27;;;20.10;61.80;;;;;;5064848;28;20457;-71
2022/08/09 06:20:29;;;;;;;39.43;37.63;;;20.30;61.50;;;;;;5069244;28;20567;-73
2022/08/09 06:22:56;;;;;;;43.93;41.97;;;20.40;61.30;;;;;;5069407;28;20529;-72
2022/08/09 06:25:27;;;;;;;38.60;36.80;;;20.50;61.50;;;;;;5063333;28;20462;-72
2022/08/09 06:27:54;;;;;;;45.73;43.53;;;20.60;61.60;;;;;;5071439;28;20848;-71
2022/08/09 06:30:21;;;;;;;43.20;40.70;;;20.70;61.50;;;;;;5059555;28;20517;-72
2022/08/09 06:32:51;;;;;;;48.77;46.13;;;20.80;61.20;;;;;;5068778;28;20536;-72
2022/08/09 06:35:19;;;;;;;48.10;45.43;;;20.70;61.40;;;;;;5062400;28;21022;-72
2022/08/09 06:37:46;;;;;;;50.17;47.50;;;20.80;62.00;;;;;;5070421;28;20969;-71
2022/08/09 06:40:13;;;;;;;51.93;49.07;;;21.00;61.40;;;;;;5066795;28;21055;-74
2022/08/09 06:42:42;;;;;;;49.87;47.37;;;21.10;61.40;;;;;;5060486;28;20538;-70
2022/08/09 06:45:10;;;;;;;47.20;44.60;;;21.20;61.10;;;;;;5069116;28;20460;-71
2022/08/09 06:47:37;;;;;;;40.57;38.67;;;21.40;61.50;;;;;;5071753;28;20453;-73
2022/08/09 06:50:04;;;;;;;59.53;56.00;;;21.50;60.70;;;;;;5069310;28;20480;-70
2022/08/09 06:52:31;;;;;;;39.03;37.00;;;21.50;60.70;;;;;;5071803;28;20484;-69
2022/08/09 06:54:58;;;;;;;49.30;46.60;;;21.60;60.00;;;;;;5065626;28;20564;-72
2022/08/09 06:57:26;;;;;;;50.37;47.70;;;21.60;59.90;;;;;;5061760;28;20515;-69
2022/08/09 06:59:54;;;;;;;48.47;45.87;;;21.60;59.70;;;;;;5066752;28;20859;-69
2022/08/09 07:02:21;;;;;;;56.37;53.27;;;21.70;59.60;;;;;;5067549;28;20514;-70
2022/08/09 07:04:48;;;;;;;46.80;44.47;;;21.80;59.40;;;;;;5064694;28;20573;-71
2022/08/09 07:07:15;;;;;;;57.70;54.97;;;21.80;59.20;;;;;;5071283;28;20595;-71
2022/08/09 07:09:43;;;;;;;57.50;54.07;;;21.80;59.00;;;;;;5067799;28;20481;-70
2022/08/09 07:12:13;;;;;;;40.87;38.80;;;21.90;59.00;;;;;;5070180;28;20561;-70
2022/08/09 07:14:40;;;;;;;41.97;39.87;;;21.90;59.00;;;;;;5071588;28;20473;-72
2022/08/09 07:17:10;;;;;;;45.23;42.60;;;22.00;58.90;;;;;;5069894;28;21021;-71
2022/08/09 07:19:37;;;;;;;55.53;52.50;;;22.00;58.90;;;;;;5064360;28;20455;-71
2022/08/09 07:22:04;;;;;;;37.77;35.80;;;22.10;58.80;;;;;;5072066;28;20485;-71
2022/08/09 07:24:31;;;;;;;51.10;48.13;;;22.10;58.70;;;;;;5065623;28;20944;-70
2022/08/09 07:27:02;;;;;;;43.80;41.40;;;22.30;58.50;;;;;;5068921;28;20542;-70
2022/08/09 07:29:29;;;;;;;39.77;37.47;;;22.60;57.50;;;;;;5065381;28;20454;-71
2022/08/09 07:31:58;;;;;;;39.40;37.07;;;22.50;57.50;;;;;;5065716;28;20476;-72
2022/08/09 07:34:26;;;;;;;47.00;44.37;;;22.60;57.20;;;;;;5060872;28;20467;-71
2022/08/09 07:36:54;;;;;;;36.00;33.77;;;22.80;56.90;;;;;;5066667;28;20459;-71
2022/08/09 07:39:21;;;;;;;52.17;49.50;;;22.80;56.90;;;;;;5066129;28;20486;-71
2022/08/09 07:41:48;;;;;;;42.23;39.80;;;23.00;56.30;;;;;;5069765;28;20478;-71
2022/08/09 07:44:15;;;;;;;36.93;34.93;;;23.10;56.20;;;;;;5060885;28;20495;-72
2022/08/09 07:46:42;;;;;;;45.90;43.63;;;23.10;56.10;;;;;;5063689;28;20540;-71
2022/08/09 07:49:09;;;;;;;44.13;41.80;;;23.20;55.90;;;;;;5063800;28;20463;-69
2022/08/09 07:51:37;;;;;;;37.13;35.43;;;23.10;56.30;;;;;;5067705;28;20502;-69
2022/08/09 07:54:05;;;;;;;51.50;48.87;;;23.20;56.20;;;;;;5069257;28;20819;-71
2022/08/09 07:56:32;;;;;;;40.90;39.00;;;23.30;56.10;;;;;;5062435;28;20538;-71
2022/08/09 07:58:59;;;;;;;40.17;37.80;;;23.40;55.70;;;;;;5063386;28;20468;-72
2022/08/09 08:01:27;;;;;;;51.47;48.83;;;23.40;55.70;;;;;;5066825;28;20510;-70
2022/08/09 08:03:54;;;;;;;41.70;39.70;;;23.50;55.60;;;;;;5063369;28;20479;-71
2022/08/09 08:06:21;;;;;;;37.07;35.07;;;23.60;55.30;;;;;;5061231;28;21104;-69
2022/08/09 08:08:50;;;;;;;45.33;43.10;;;23.90;54.60;;;;;;5066659;28;20849;-72
2022/08/09 08:11:30;;;;;;;49.10;46.63;;;23.80;54.70;;;;;;5069329;28;20900;-70
2022/08/09 08:13:57;;;;;;;47.60;45.20;;;24.00;54.50;;;;;;5067764;28;20501;-69
2022/08/09 08:16:24;;;;;;;39.37;37.60;;;24.00;54.40;;;;;;5067091;28;20451;-70
2022/08/09 08:18:51;;;;;;;39.37;37.47;;;24.00;54.50;;;;;;5067665;28;20546;-71
2022/08/09 08:21:18;;;;;;;42.47;40.17;;;24.10;54.50;;;;;;5069033;28;20505;-70
2022/08/09 08:23:45;;;;;;;49.40;46.87;;;24.20;54.10;;;;;;5065495;28;20866;-70
2022/08/09 08:26:13;;;;;;;39.10;37.30;;;24.20;54.00;;;;;;5062710;28;20461;-69
2022/08/09 08:28:40;;;;;;;48.07;45.30;;;24.20;53.80;;;;;;5062074;28;20482;-70
2022/08/09 08:31:07;;;;;;;43.73;41.73;;;24.40;53.70;;;;;;5053461;28;20530;-69
2022/08/09 08:33:34;;;;;;;40.53;38.60;;;24.30;53.80;;;;;;5055927;28;20471;-70
2022/08/09 08:36:01;;;;;;;46.80;43.90;;;24.50;53.30;;;;;;5057025;28;20886;-70
2022/08/09 08:38:28;;;;;;;36.97;35.27;;;24.70;53.10;;;;;;5066883;28;20454;-69
2022/08/09 08:40:57;;;;;;;53.00;50.40;;;24.70;52.40;;;;;;5065733;28;20493;-72
2022/08/09 08:43:26;;;;;;;48.00;45.50;;;24.80;52.10;;;;;;5063037;28;20541;-70
2022/08/09 08:45:55;;;;;;;51.53;48.90;;;24.80;52.60;;;;;;5056107;28;20453;-70
2022/08/09 08:48:24;;;;;;;50.50;47.90;;;24.90;52.40;;;;;;5065192;28;20542;-70
2022/08/09 08:50:52;;;;;;;45.00;42.60;;;24.90;52.40;;;;;;5056394;28;20569;-69
2022/08/09 08:53:19;;;;;;;39.53;37.53;;;24.80;52.60;;;;;;5065035;28;21071;-70
2022/08/09 08:55:46;;;;;;;49.43;46.93;;;24.80;52.60;;;;;;5056320;28;20501;-70
2022/08/09 08:58:13;;;;;;;40.57;38.77;;;24.80;52.60;;;;;;5066942;28;20536;-70
2022/08/09 09:00:42;;;;;;;44.70;42.67;;;25.10;52.00;;;;;;5067099;28;20580;-70
2022/08/09 09:03:11;;;;;;;46.27;43.87;;;25.30;51.70;;;;;;5066322;28;20461;-72
2022/08/09 09:05:39;;;;;;;47.87;45.47;;;25.50;51.10;;;;;;5066503;28;20576;-70
2022/08/09 09:08:07;;;;;;;38.87;37.00;;;25.50;50.60;;;;;;5063777;28;21029;-70
2022/08/09 09:10:37;;;;;;;48.70;46.50;;;25.50;50.50;;;;;;5055903;28;20560;-70
2022/08/09 09:13:05;;;;;;;40.53;38.53;;;25.50;50.50;;;;;;5061425;28;20490;-69
2022/08/09 09:15:32;;;;;;;49.17;46.77;;;25.50;50.40;;;;;;5065306;28;20545;-70
2022/08/09 09:18:00;;;;;;;38.87;37.07;;;25.80;49.70;;;;;;5071384;28;20460;-69
2022/08/09 09:20:27;;;;;;;40.77;38.77;;;25.90;49.50;;;;;;5058972;28;20501;-70
2022/08/09 09:22:56;;;;;;;39.67;37.77;;;25.80;49.30;;;;;;5068726;28;20478;-72
2022/08/09 09:25:37;;;;;;;53.93;51.33;;;25.90;49.40;;;;;;5068533;28;20459;-71
2022/08/09 09:28:05;;;;;;;36.90;35.30;;;26.00;49.30;;;;;;5060474;28;20453;-69
2022/08/09 09:30:33;;;;;;;43.10;41.10;;;26.00;49.30;;;;;;5067001;28;20483;-70
2022/08/09 09:33:07;;;;;;;52.57;50.07;;;26.10;48.90;;;;;;5072692;28;20510;-70
2022/08/09 09:35:50;;;;;;;41.33;39.40;;;26.10;48.40;;;;;;5070717;28;20574;-70
2022/08/09 09:38:17;;;;;;;50.83;48.27;;;26.30;47.90;;;;;;5070924;28;20486;-70
2022/08/09 09:40:45;;;;;;;41.43;39.60;;;26.30;47.50;;;;;;5068913;28;20914;-72
2022/08/09 09:43:19;;;;;;;52.90;50.30;;;26.30;47.40;;;;;;5067158;28;20442;-67
2022/08/09 09:45:51;;;;;;;43.80;41.80;;;26.30;46.80;;;;;;5072299;28;20963;-70
2022/08/09 09:48:21;;;;;;;39.80;37.93;;;26.40;45.00;;;;;;5070939;28;20542;-70
2022/08/09 09:50:50;;;;;;;45.23;43.23;;;26.40;44.60;;;;;;5071944;28;20497;-71
2022/08/09 09:53:18;;;;;;;53.00;50.50;;;26.70;43.70;;;;;;5069400;28;20473;-68
2022/08/09 09:55:53;;;;;;;37.23;35.43;;;26.80;44.00;;;;;;5066819;28;21092;-67
2022/08/09 09:58:20;;;;;;;47.80;45.40;;;26.70;44.20;;;;;;5068474;28;20496;-66
2022/08/09 10:00:50;;;;;;;43.53;41.47;;;26.70;44.40;;;;;;5059311;28;20481;-67
2022/08/09 10:03:36;;;;;;;56.67;53.97;;;26.70;44.50;;;;;;5069913;28;20457;-66
2022/08/09 10:06:03;;;;;;;40.60;38.60;;;26.90;44.40;;;;;;5068556;28;20541;-67
2022/08/09 10:08:30;;;;;;;40.67;38.77;;;26.80;44.90;;;;;;5069040;28;20541;-66
2022/08/09 10:10:57;;;;;;;42.87;40.87;;;26.90;45.10;;;;;;5066643;28;20677;-67
2022/08/09 10:13:24;;;;;;;42.80;40.73;;;26.90;44.90;;;;;;5069279;28;20553;-66
2022/08/09 10:15:52;;;;;;;47.00;44.80;;;27.00;44.70;;;;;;5063197;28;20512;-66
2022/08/09 10:18:20;;;;;;;41.17;39.20;;;27.00;44.40;;;;;;5068410;28;20541;-66
2022/08/09 10:20:47;;;;;;;40.13;38.13;;;27.00;44.20;;;;;;5067625;28;20474;-68
2022/08/09 10:23:17;;;;;;;51.00;48.50;;;27.20;43.90;;;;;;5068161;28;20550;-69
2022/08/09 10:25:46;;;;;;;39.90;37.90;;;27.20;43.50;;;;;;5069384;28;20482;-69
2022/08/09 10:28:13;;;;;;;47.10;44.83;;;27.20;43.50;;;;;;5067095;28;20486;-69
2022/08/09 10:30:41;;;;;;;41.70;39.67;;;27.20;42.80;;;;;;5066099;28;20479;-69
2022/08/09 10:33:08;;;;;;;49.20;46.80;;;27.10;42.90;;;;;;5063632;28;20946;-71
2022/08/09 10:35:39;;;;;;;37.37;35.60;;;27.20;42.40;;;;;;5066899;28;20458;-70
2022/08/09 10:38:06;;;;;;;51.63;48.97;;;27.30;42.20;;;;;;5066209;28;20552;-67
2022/08/09 10:40:33;;;;;;;38.13;36.13;;;27.10;42.80;;;;;;5063986;28;20502;-67
2022/08/09 10:43:00;;;;;;;52.03;49.63;;;27.20;42.90;;;;;;5069158;28;20500;-66
2022/08/09 10:45:30;;;;;;;37.03;35.03;;;27.20;42.90;;;;;;5064402;28;20561;-66
2022/08/09 10:48:04;;;;;;;44.90;42.70;;;27.20;42.60;;;;;;5068716;28;20469;-67
2022/08/09 10:53:42;;;;;;;41.87;39.93;;;27.40;42.20;;;;;;5067226;28;20474;-69
2022/08/09 10:56:18;;;;;;;39.80;38.00;;;27.40;42.10;;;;;;5066893;28;20796;-70
2022/08/09 10:58:45;;;;;;;52.47;50.00;;;27.50;42.00;;;;;;5065409;28;20459;-69
2022/08/09 11:01:39;;;;;;;45.07;43.00;;;27.60;41.60;;;;;;5061901;28;20494;-70
2022/08/09 11:04:19;;;;;;;38.70;37.00;;;27.70;41.50;;;;;;5058853;28;20513;-71
2022/08/09 11:06:49;;;;;;;45.83;43.73;;;27.70;41.90;;;;;;5070160;28;20460;-70
2022/08/09 11:09:19;;;;;;;40.93;39.07;;;27.60;41.60;;;;;;5068936;28;20469;-69
2022/08/09 11:12:12;;;;;;;40.50;38.27;;;27.70;41.20;;;;;;5068934;28;20480;-69
2022/08/09 11:14:43;;;;;;;36.00;34.30;;;27.90;40.60;;;;;;5061314;28;20508;-69
2022/08/09 11:17:49;;;;;;;55.83;53.13;;;27.80;40.50;;;;;;5070866;28;20458;-68
2022/08/09 11:20:18;;;;;;;38.60;36.80;;;27.80;40.10;;;;;;5053274;28;20577;-69
2022/08/09 11:23:00;;;;;;;36.10;34.40;;;27.80;38.70;;;;;;5068190;28;20512;-69
2022/08/09 11:25:42;;;;;;;44.90;42.77;;;27.80;38.60;;;;;;5066608;28;20454;-68
2022/08/09 11:28:29;;;;;;;38.43;36.57;;;27.90;38.60;;;;;;5068694;28;20464;-71
2022/08/09 11:30:56;;;;;;;41.80;39.90;;;27.80;38.60;;;;;;5070381;28;20470;-69
2022/08/09 11:33:40;;;;;;;43.83;41.63;;;27.90;38.10;;;;;;5067238;28;20909;-69
2022/08/09 11:36:09;;;;;;;54.13;51.57;;;28.00;38.10;;;;;;5069855;28;20446;-69
2022/08/09 11:38:37;;;;;;;36.57;34.93;;;28.00;37.70;;;;;;5068343;28;20533;-69
2022/08/09 11:41:27;;;;;;;41.53;39.60;;;28.00;38.30;;;;;;5068190;28;20536;-69
2022/08/09 11:43:54;;;;;;;42.00;40.03;;;28.00;38.70;;;;;;5063630;28;20454;-69
2022/08/09 11:46:22;;;;;;;40.17;38.37;;;28.00;38.50;;;;;;5069790;28;20461;-69
2022/08/09 11:48:51;;;;;;;49.57;46.57;;;28.10;38.60;;;;;;5068165;28;20819;-69
2022/08/09 11:51:19;;;;;;;49.33;46.97;;;28.30;38.20;;;;;;5068340;28;20475;-69
2022/08/09 11:53:49;;;;;;;38.73;36.93;;;28.20;37.10;;;;;;5062762;28;20479;-69
2022/08/09 11:56:30;;;;;;;52.03;49.63;;;28.00;36.50;;;;;;5066093;28;20496;-69
2022/08/09 11:59:00;;;;;;;36.50;34.80;;;28.10;37.10;;;;;;5059469;28;20489;-69
2022/08/09 12:01:37;;;;;;;53.97;51.47;;;28.40;37.40;;;;;;5064879;28;20829;-67
2022/08/09 12:04:06;;;;;;;48.57;46.33;;;28.50;37.90;;;;;;5060144;28;20492;-66
2022/08/09 12:06:34;;;;;;;37.30;35.40;;;28.50;38.00;;;;;;5069559;28;20459;-67
2022/08/09 12:09:05;;;;;;;36.23;34.63;;;28.70;37.80;;;;;;5065362;28;20964;-67
2022/08/09 12:11:32;;;;;;;48.37;45.93;;;28.50;37.90;;;;;;5057423;28;21019;-67
2022/08/09 12:14:04;;;;;;;37.90;36.10;;;28.60;38.50;;;;;;5064022;28;20478;-67
2022/08/09 12:16:37;;;;;;;51.57;48.90;;;28.70;38.80;;;;;;5054978;28;20485;-67
2022/08/09 12:19:07;;;;;;;50.97;48.57;;;28.80;38.50;;;;;;5067308;28;20463;-67
2022/08/09 12:21:36;;;;;;;49.60;47.30;;;29.10;38.50;;;;;;5069196;28;20478;-67
2022/08/09 12:24:06;;;;;;;47.00;44.80;;;29.20;37.90;;;;;;5062501;28;20451;-66
2022/08/09 12:26:42;;;;;;;38.60;36.80;;;29.20;38.00;;;;;;5064421;28;20484;-70
2022/08/09 12:29:14;;;;;;;48.67;46.23;;;29.40;37.40;;;;;;5056045;28;20498;-67
2022/08/09 12:31:41;;;;;;;45.57;43.17;;;29.40;37.00;;;;;;5064890;28;20528;-67
2022/08/09 12:34:08;;;;;;;44.37;42.13;;;29.30;37.10;;;;;;5058048;28;20478;-68
2022/08/09 12:36:50;;;;;;;48.37;46.07;;;29.20;37.40;;;;;;5066092;28;20545;-67
2022/08/09 12:39:18;;;;;;;44.93;42.70;;;29.30;37.50;;;;;;5062026;28;20459;-67
2022/08/09 12:41:45;;;;;;;42.40;39.97;;;29.30;37.50;;;;;;5059516;28;20574;-67